Terminal Aerodrome Forecast
Issued by NWS Grand Forks, ND

Home | Current Version | Previous Version | Text Only | Print | Product List | Glossary On
Versions: 1 2 3 4 5 6 7 8 9 10 11 12
000
FTUS43 KFGF 241700
TAFFAR
TAF
KFAR 241720Z 2418/2518 19011KT P6SM SKC
     FM241900 27015G22KT P6SM FEW150
     FM242300 29009KT P6SM SCT200=

USA.gov is the U.S. government's official web portal to all federal, state and local government web resources and services.